sensor_id;sensor_type;location;lat;lon;timestamp;temperature;humidity
15099;DHT22;33900;53.640;9.942;2023-08-20T08:23:57;20.40;99.50
15099;DHT22;33900;53.640;9.942;2023-08-20T08:26:23;20.50;99.90
15099;DHT22;33900;53.640;9.942;2023-08-20T08:28:48;20.70;99.90
15099;DHT22;33900;53.640;9.942;2023-08-20T08:31:14;21.00;99.90
15099;DHT22;33900;53.640;9.942;2023-08-20T08:33:42;21.20;99.90
15099;DHT22;33900;53.640;9.942;2023-08-20T08:36:08;21.50;99.90
15099;DHT22;33900;53.640;9.942;2023-08-20T08:38:33;21.70;99.90
15099;DHT22;33900;53.640;9.942;2023-08-20T08:41:00;22.00;99.60
15099;DHT22;33900;53.640;9.942;2023-08-20T08:43:26;22.20;99.40
15099;DHT22;33900;53.640;9.942;2023-08-20T08:45:53;22.40;99.50
15099;DHT22;33900;53.640;9.942;2023-08-20T08:48:21;22.70;99.60
15099;DHT22;33900;53.640;9.942;2023-08-20T08:50:46;23.00;99.30
15099;DHT22;33900;53.640;9.942;2023-08-20T08:53:12;23.40;98.90
15099;DHT22;33900;53.640;9.942;2023-08-20T08:55:38;23.80;98.10
15099;DHT22;33900;53.640;9.942;2023-08-20T08:58:04;24.30;97.80
15099;DHT22;33900;53.640;9.942;2023-08-20T09:00:29;24.70;97.10
15099;DHT22;33900;53.640;9.942;2023-08-20T09:02:57;25.10;96.40
15099;DHT22;33900;53.640;9.942;2023-08-20T09:05:23;25.60;95.40
15099;DHT22;33900;53.640;9.942;2023-08-20T09:07:54;25.80;94.70
15099;DHT22;33900;53.640;9.942;2023-08-20T09:10:20;25.70;94.10
15099;DHT22;33900;53.640;9.942;2023-08-20T09:12:47;25.50;93.60
15099;DHT22;33900;53.640;9.942;2023-08-20T09:15:13;25.40;93.50
15099;DHT22;33900;53.640;9.942;2023-08-20T09:17:40;25.20;93.10
15099;DHT22;33900;53.640;9.942;2023-08-20T09:20:06;25.00;92.70
15099;DHT22;33900;53.640;9.942;2023-08-20T09:22:32;24.80;92.70
15099;DHT22;33900;53.640;9.942;2023-08-20T09:25:00;24.70;92.80
15099;DHT22;33900;53.640;9.942;2023-08-20T09:27:26;24.60;92.90
15099;DHT22;33900;53.640;9.942;2023-08-20T09:29:53;24.50;93.10
15099;DHT22;33900;53.640;9.942;2023-08-20T09:32:20;24.50;93.10
15099;DHT22;33900;53.640;9.942;2023-08-20T09:34:47;24.40;93.10
15099;DHT22;33900;53.640;9.942;2023-08-20T09:37:13;24.30;92.80
15099;DHT22;33900;53.640;9.942;2023-08-20T09:39:39;24.20;92.90
15099;DHT22;33900;53.640;9.942;2023-08-20T09:42:05;24.30;93.00
15099;DHT22;33900;53.640;9.942;2023-08-20T09:44:34;24.30;92.80
15099;DHT22;33900;53.640;9.942;2023-08-20T09:47:07;24.20;92.80
15099;DHT22;33900;53.640;9.942;2023-08-20T09:49:37;24.20;93.10
15099;DHT22;33900;53.640;9.942;2023-08-20T09:52:04;24.30;92.70
15099;DHT22;33900;53.640;9.942;2023-08-20T09:57:30;24.10;92.20
15099;DHT22;33900;53.640;9.942;2023-08-20T09:59:58;24.00;92.10
15099;DHT22;33900;53.640;9.942;2023-08-20T10:02:26;23.90;92.30
15099;DHT22;33900;53.640;9.942;2023-08-20T10:04:52;23.80;92.50
15099;DHT22;33900;53.640;9.942;2023-08-20T10:07:18;23.80;92.60
15099;DHT22;33900;53.640;9.942;2023-08-20T10:09:44;23.80;92.70
15099;DHT22;33900;53.640;9.942;2023-08-20T10:12:12;23.80;92.60
15099;DHT22;33900;53.640;9.942;2023-08-20T10:14:38;23.70;92.70
15099;DHT22;33900;53.640;9.942;2023-08-20T10:17:07;23.70;92.60
15099;DHT22;33900;53.640;9.942;2023-08-20T10:19:34;23.70;92.80
15099;DHT22;33900;53.640;9.942;2023-08-20T10:22:01;23.70;92.70
15099;DHT22;33900;53.640;9.942;2023-08-20T10:24:27;23.70;92.70
15099;DHT22;33900;53.640;9.942;2023-08-20T10:27:08;23.70;92.70
15099;DHT22;33900;53.640;9.942;2023-08-20T10:29:43;23.70;92.50
15099;DHT22;33900;53.640;9.942;2023-08-20T10:32:11;23.60;92.50
15099;DHT22;33900;53.640;9.942;2023-08-20T10:34:37;23.70;92.50
15099;DHT22;33900;53.640;9.942;2023-08-20T10:37:13;23.60;92.50
15099;DHT22;33900;53.640;9.942;2023-08-20T10:39:39;23.60;92.40
15099;DHT22;33900;53.640;9.942;2023-08-20T10:47:51;23.70;92.70
15099;DHT22;33900;53.640;9.942;2023-08-20T10:50:16;23.70;92.60
15099;DHT22;33900;53.640;9.942;2023-08-20T10:52:46;23.70;92.50
15099;DHT22;33900;53.640;9.942;2023-08-20T10:55:12;23.70;92.10
15099;DHT22;33900;53.640;9.942;2023-08-20T10:57:38;23.70;92.20
15099;DHT22;33900;53.640;9.942;2023-08-20T11:00:04;23.70;92.10
15099;DHT22;33900;53.640;9.942;2023-08-20T11:02:42;23.70;92.10
15099;DHT22;33900;53.640;9.942;2023-08-20T11:05:18;23.70;92.10
15099;DHT22;33900;53.640;9.942;2023-08-20T11:07:44;23.70;92.20
15099;DHT22;33900;53.640;9.942;2023-08-20T11:10:10;23.80;92.20
15099;DHT22;33900;53.640;9.942;2023-08-20T11:12:37;23.90;92.30
15099;DHT22;33900;53.640;9.942;2023-08-20T11:15:03;23.90;92.10
15099;DHT22;33900;53.640;9.942;2023-08-20T11:17:29;23.90;91.80
15099;DHT22;33900;53.640;9.942;2023-08-20T11:19:55;24.00;91.70
15099;DHT22;33900;53.640;9.942;2023-08-20T11:22:21;24.00;91.60
15099;DHT22;33900;53.640;9.942;2023-08-20T11:24:46;24.00;91.70
15099;DHT22;33900;53.640;9.942;2023-08-20T11:27:12;24.00;91.70
15099;DHT22;33900;53.640;9.942;2023-08-20T11:29:41;24.20;91.80
15099;DHT22;33900;53.640;9.942;2023-08-20T11:32:07;24.20;91.80
15099;DHT22;33900;53.640;9.942;2023-08-20T11:34:33;24.30;91.70
15099;DHT22;33900;53.640;9.942;2023-08-20T11:36:58;24.30;91.60
15099;DHT22;33900;53.640;9.942;2023-08-20T11:39:24;24.40;91.60
15099;DHT22;33900;53.640;9.942;2023-08-20T11:41:50;24.50;91.70
15099;DHT22;33900;53.640;9.942;2023-08-20T11:44:20;24.50;91.30
15099;DHT22;33900;53.640;9.942;2023-08-20T11:46:46;24.60;91.40
15099;DHT22;33900;53.640;9.942;2023-08-20T11:49:12;24.70;91.50
15099;DHT22;33900;53.640;9.942;2023-08-20T11:51:47;24.80;91.10
15099;DHT22;33900;53.640;9.942;2023-08-20T11:54:13;24.90;91.00
15099;DHT22;33900;53.640;9.942;2023-08-20T11:56:43;24.90;90.80
15099;DHT22;33900;53.640;9.942;2023-08-20T11:59:12;25.10;91.00
15099;DHT22;33900;53.640;9.942;2023-08-20T12:01:37;25.10;91.00
15099;DHT22;33900;53.640;9.942;2023-08-20T12:04:03;25.30;90.90
15099;DHT22;33900;53.640;9.942;2023-08-20T12:06:30;25.30;90.80
15099;DHT22;33900;53.640;9.942;2023-08-20T12:08:56;25.40;90.80
15099;DHT22;33900;53.640;9.942;2023-08-20T12:11:26;25.40;90.60
15099;DHT22;33900;53.640;9.942;2023-08-20T12:13:51;25.40;90.50
15099;DHT22;33900;53.640;9.942;2023-08-20T12:16:17;25.40;90.60
15099;DHT22;33900;53.640;9.942;2023-08-20T12:18:45;25.40;90.30
15099;DHT22;33900;53.640;9.942;2023-08-20T12:21:11;25.40;90.10
15099;DHT22;33900;53.640;9.942;2023-08-20T12:23:37;25.50;90.10
15099;DHT22;33900;53.640;9.942;2023-08-20T12:26:02;25.50;90.00
15099;DHT22;33900;53.640;9.942;2023-08-20T12:28:28;25.50;90.00
15099;DHT22;33900;53.640;9.942;2023-08-20T12:30:53;25.60;89.90
15099;DHT22;33900;53.640;9.942;2023-08-20T12:33:19;25.70;90.10
15099;DHT22;33900;53.640;9.942;2023-08-20T12:35:46;25.90;90.10
15099;DHT22;33900;53.640;9.942;2023-08-20T12:38:12;26.00;90.00
15099;DHT22;33900;53.640;9.942;2023-08-20T12:40:37;25.90;89.50
15099;DHT22;33900;53.640;9.942;2023-08-20T12:43:03;26.00;88.20
15099;DHT22;33900;53.640;9.942;2023-08-20T12:45:29;26.00;87.60
15099;DHT22;33900;53.640;9.942;2023-08-20T12:47:54;26.00;86.70
15099;DHT22;33900;53.640;9.942;2023-08-20T12:50:20;26.00;87.40
15099;DHT22;33900;53.640;9.942;2023-08-20T12:52:45;26.00;87.40
15099;DHT22;33900;53.640;9.942;2023-08-20T12:55:12;26.10;87.30
15099;DHT22;33900;53.640;9.942;2023-08-20T12:57:51;26.00;86.80
15099;DHT22;33900;53.640;9.942;2023-08-20T13:00:16;26.00;87.20
15099;DHT22;33900;53.640;9.942;2023-08-20T13:02:42;26.00;87.50
15099;DHT22;33900;53.640;9.942;2023-08-20T13:05:08;25.90;87.00
15099;DHT22;33900;53.640;9.942;2023-08-20T13:07:34;26.00;87.40
15099;DHT22;33900;53.640;9.942;2023-08-20T13:10:00;26.00;87.70
15099;DHT22;33900;53.640;9.942;2023-08-20T13:12:26;26.00;87.50
15099;DHT22;33900;53.640;9.942;2023-08-20T13:14:52;26.00;86.70
15099;DHT22;33900;53.640;9.942;2023-08-20T13:17:18;26.00;87.00
15099;DHT22;33900;53.640;9.942;2023-08-20T13:19:44;26.00;87.10
15099;DHT22;33900;53.640;9.942;2023-08-20T13:22:10;26.00;87.00
15099;DHT22;33900;53.640;9.942;2023-08-20T13:24:35;26.00;86.70
15099;DHT22;33900;53.640;9.942;2023-08-20T13:27:01;26.00;86.70
15099;DHT22;33900;53.640;9.942;2023-08-20T13:29:26;26.00;86.30
15099;DHT22;33900;53.640;9.942;2023-08-20T13:31:52;25.90;86.30
15099;DHT22;33900;53.640;9.942;2023-08-20T13:34:18;25.90;86.20
15099;DHT22;33900;53.640;9.942;2023-08-20T13:36:43;26.00;86.50
15099;DHT22;33900;53.640;9.942;2023-08-20T13:39:09;26.10;86.00
15099;DHT22;33900;53.640;9.942;2023-08-20T13:41:37;26.20;86.40
15099;DHT22;33900;53.640;9.942;2023-08-20T13:44:02;26.30;86.10
15099;DHT22;33900;53.640;9.942;2023-08-20T13:46:28;26.20;85.90
15099;DHT22;33900;53.640;9.942;2023-08-20T13:48:54;26.20;85.60
15099;DHT22;33900;53.640;9.942;2023-08-20T13:51:20;26.30;85.80
15099;DHT22;33900;53.640;9.942;2023-08-20T13:53:46;26.30;85.30
15099;DHT22;33900;53.640;9.942;2023-08-20T13:56:11;26.30;85.40
15099;DHT22;33900;53.640;9.942;2023-08-20T13:58:37;26.40;85.20
15099;DHT22;33900;53.640;9.942;2023-08-20T14:01:02;26.50;85.30
15099;DHT22;33900;53.640;9.942;2023-08-20T14:03:28;26.50;84.80
15099;DHT22;33900;53.640;9.942;2023-08-20T14:05:53;26.50;84.40
15099;DHT22;33900;53.640;9.942;2023-08-20T14:08:19;26.50;84.50
15099;DHT22;33900;53.640;9.942;2023-08-20T14:10:44;26.60;84.30
15099;DHT22;33900;53.640;9.942;2023-08-20T14:13:10;26.60;83.70
15099;DHT22;33900;53.640;9.942;2023-08-20T14:15:36;26.70;84.00
15099;DHT22;33900;53.640;9.942;2023-08-20T14:18:02;26.70;84.10
15099;DHT22;33900;53.640;9.942;2023-08-20T14:20:28;26.80;84.50
15099;DHT22;33900;53.640;9.942;2023-08-20T14:22:53;26.80;84.80
15099;DHT22;33900;53.640;9.942;2023-08-20T14:25:19;26.80;85.00
15099;DHT22;33900;53.640;9.942;2023-08-20T14:27:45;26.90;84.10
15099;DHT22;33900;53.640;9.942;2023-08-20T14:30:10;26.90;83.90
15099;DHT22;33900;53.640;9.942;2023-08-20T14:32:36;26.90;83.60
15099;DHT22;33900;53.640;9.942;2023-08-20T14:35:02;27.00;82.60
15099;DHT22;33900;53.640;9.942;2023-08-20T14:37:28;27.00;83.20
15099;DHT22;33900;53.640;9.942;2023-08-20T14:39:54;27.00;83.40
15099;DHT22;33900;53.640;9.942;2023-08-20T14:42:19;26.90;83.10
15099;DHT22;33900;53.640;9.942;2023-08-20T14:44:45;27.00;82.70
15099;DHT22;33900;53.640;9.942;2023-08-20T14:47:10;26.90;83.10
15099;DHT22;33900;53.640;9.942;2023-08-20T14:49:36;26.90;83.00
15099;DHT22;33900;53.640;9.942;2023-08-20T14:52:02;27.00;83.00
15099;DHT22;33900;53.640;9.942;2023-08-20T14:54:28;27.00;83.10
15099;DHT22;33900;53.640;9.942;2023-08-20T14:56:53;27.00;82.50
15099;DHT22;33900;53.640;9.942;2023-08-20T14:59:19;27.00;82.80
15099;DHT22;33900;53.640;9.942;2023-08-20T15:01:44;27.00;82.70
15099;DHT22;33900;53.640;9.942;2023-08-20T15:04:10;27.10;83.10
15099;DHT22;33900;53.640;9.942;2023-08-20T15:06:35;27.00;82.70
15099;DHT22;33900;53.640;9.942;2023-08-20T15:09:01;27.00;81.20
15099;DHT22;33900;53.640;9.942;2023-08-20T15:11:26;27.00;81.30
15099;DHT22;33900;53.640;9.942;2023-08-20T15:13:53;27.00;82.10
15099;DHT22;33900;53.640;9.942;2023-08-20T15:16:18;27.00;81.10
15099;DHT22;33900;53.640;9.942;2023-08-20T15:18:44;27.00;81.30
15099;DHT22;33900;53.640;9.942;2023-08-20T15:21:10;27.00;81.60
15099;DHT22;33900;53.640;9.942;2023-08-20T15:23:36;27.00;81.20
15099;DHT22;33900;53.640;9.942;2023-08-20T15:26:03;27.00;80.80
15099;DHT22;33900;53.640;9.942;2023-08-20T15:28:29;27.00;81.50
15099;DHT22;33900;53.640;9.942;2023-08-20T15:30:58;27.00;81.40
15099;DHT22;33900;53.640;9.942;2023-08-20T15:33:26;27.00;81.70
15099;DHT22;33900;53.640;9.942;2023-08-20T15:35:52;27.00;81.60
15099;DHT22;33900;53.640;9.942;2023-08-20T15:38:17;27.00;81.80
15099;DHT22;33900;53.640;9.942;2023-08-20T15:40:43;27.00;81.90
15099;DHT22;33900;53.640;9.942;2023-08-20T15:43:09;27.00;82.00
15099;DHT22;33900;53.640;9.942;2023-08-20T15:45:34;26.90;82.10
15099;DHT22;33900;53.640;9.942;2023-08-20T15:48:00;27.00;82.40
15099;DHT22;33900;53.640;9.942;2023-08-20T15:50:25;26.90;82.40
15099;DHT22;33900;53.640;9.942;2023-08-20T15:52:53;26.90;82.20
15099;DHT22;33900;53.640;9.942;2023-08-20T15:55:19;26.90;82.30
15099;DHT22;33900;53.640;9.942;2023-08-20T15:57:45;26.90;82.40
15099;DHT22;33900;53.640;9.942;2023-08-20T16:00:10;26.90;82.30
15099;DHT22;33900;53.640;9.942;2023-08-20T16:02:43;26.80;82.20
15099;DHT22;33900;53.640;9.942;2023-08-20T16:05:08;26.80;82.30
15099;DHT22;33900;53.640;9.942;2023-08-20T16:07:34;26.80;82.40
15099;DHT22;33900;53.640;9.942;2023-08-20T16:10:00;26.80;82.50
15099;DHT22;33900;53.640;9.942;2023-08-20T16:12:26;26.70;82.50
15099;DHT22;33900;53.640;9.942;2023-08-20T16:14:51;26.70;82.50
15099;DHT22;33900;53.640;9.942;2023-08-20T16:17:17;26.70;82.50
15099;DHT22;33900;53.640;9.942;2023-08-20T16:19:43;26.70;82.80
15099;DHT22;33900;53.640;9.942;2023-08-20T16:22:09;26.60;82.50
15099;DHT22;33900;53.640;9.942;2023-08-20T16:24:35;26.60;82.60
15099;DHT22;33900;53.640;9.942;2023-08-20T16:27:01;26.60;82.80
15099;DHT22;33900;53.640;9.942;2023-08-20T16:29:28;26.50;82.90
15099;DHT22;33900;53.640;9.942;2023-08-20T16:31:54;26.50;83.10
15099;DHT22;33900;53.640;9.942;2023-08-20T16:34:19;26.50;83.20
15099;DHT22;33900;53.640;9.942;2023-08-20T16:36:45;26.40;83.20
15099;DHT22;33900;53.640;9.942;2023-08-20T16:39:11;26.40;83.30
15099;DHT22;33900;53.640;9.942;2023-08-20T16:41:37;26.40;83.50
15099;DHT22;33900;53.640;9.942;2023-08-20T16:44:03;26.30;83.60
15099;DHT22;33900;53.640;9.942;2023-08-20T16:46:29;26.30;83.70
15099;DHT22;33900;53.640;9.942;2023-08-20T16:48:55;26.20;84.10
15099;DHT22;33900;53.640;9.942;2023-08-20T16:51:20;26.20;84.10
15099;DHT22;33900;53.640;9.942;2023-08-20T16:53:46;26.20;84.30
15099;DHT22;33900;53.640;9.942;2023-08-20T16:56:11;26.10;85.20
15099;DHT22;33900;53.640;9.942;2023-08-20T16:58:38;26.10;84.60
15099;DHT22;33900;53.640;9.942;2023-08-20T17:01:03;26.00;84.80
15099;DHT22;33900;53.640;9.942;2023-08-20T17:03:30;26.00;85.00
15099;DHT22;33900;53.640;9.942;2023-08-20T17:06:02;26.00;85.20
15099;DHT22;33900;53.640;9.942;2023-08-20T17:08:28;25.90;85.20
15099;DHT22;33900;53.640;9.942;2023-08-20T17:10:54;25.90;85.40
15099;DHT22;33900;53.640;9.942;2023-08-20T17:13:29;25.80;85.50
15099;DHT22;33900;53.640;9.942;2023-08-20T17:15:55;25.70;85.60
15099;DHT22;33900;53.640;9.942;2023-08-20T17:18:21;25.80;85.90
15099;DHT22;33900;53.640;9.942;2023-08-20T17:20:47;25.70;85.90
15099;DHT22;33900;53.640;9.942;2023-08-20T17:23:13;25.60;86.00
15099;DHT22;33900;53.640;9.942;2023-08-20T17:25:40;25.50;86.10
15099;DHT22;33900;53.640;9.942;2023-08-20T17:28:06;25.50;86.30
15099;DHT22;33900;53.640;9.942;2023-08-20T17:30:31;25.50;86.50
15099;DHT22;33900;53.640;9.942;2023-08-20T17:32:57;25.50;86.70
15099;DHT22;33900;53.640;9.942;2023-08-20T17:35:23;25.40;86.70
15099;DHT22;33900;53.640;9.942;2023-08-20T17:37:49;25.30;86.90
15099;DHT22;33900;53.640;9.942;2023-08-20T17:40:14;25.20;87.00
15099;DHT22;33900;53.640;9.942;2023-08-20T17:42:40;25.20;87.10
15099;DHT22;33900;53.640;9.942;2023-08-20T17:45:06;25.10;87.20
15099;DHT22;33900;53.640;9.942;2023-08-20T17:47:35;25.10;87.30
15099;DHT22;33900;53.640;9.942;2023-08-20T17:50:06;25.00;87.40
15099;DHT22;33900;53.640;9.942;2023-08-20T17:52:32;25.00;87.60
15099;DHT22;33900;53.640;9.942;2023-08-20T17:54:58;24.90;87.70
15099;DHT22;33900;53.640;9.942;2023-08-20T17:57:24;24.90;87.80
15099;DHT22;33900;53.640;9.942;2023-08-20T17:59:50;24.90;87.90
15099;DHT22;33900;53.640;9.942;2023-08-20T18:02:16;24.90;88.10
15099;DHT22;33900;53.640;9.942;2023-08-20T18:04:41;24.80;88.20
15099;DHT22;33900;53.640;9.942;2023-08-20T18:07:07;24.80;88.20
15099;DHT22;33900;53.640;9.942;2023-08-20T18:09:32;24.80;88.40
15099;DHT22;33900;53.640;9.942;2023-08-20T18:12:00;24.70;88.40
15099;DHT22;33900;53.640;9.942;2023-08-20T18:14:26;24.70;88.60
15099;DHT22;33900;53.640;9.942;2023-08-20T18:16:51;24.70;88.60
15099;DHT22;33900;53.640;9.942;2023-08-20T18:19:17;24.70;89.50
15099;DHT22;33900;53.640;9.942;2023-08-20T18:21:42;24.60;88.80
15099;DHT22;33900;53.640;9.942;2023-08-20T18:24:08;24.60;88.90
15099;DHT22;33900;53.640;9.942;2023-08-20T18:26:34;24.50;88.90
15099;DHT22;33900;53.640;9.942;2023-08-20T18:28:59;24.50;89.00
15099;DHT22;33900;53.640;9.942;2023-08-20T18:31:25;24.50;89.10
15099;DHT22;33900;53.640;9.942;2023-08-20T18:33:50;24.50;89.30
15099;DHT22;33900;53.640;9.942;2023-08-20T18:36:16;24.40;89.30
15099;DHT22;33900;53.640;9.942;2023-08-20T18:38:41;24.40;89.40
15099;DHT22;33900;53.640;9.942;2023-08-20T18:41:08;24.40;89.40
15099;DHT22;33900;53.640;9.942;2023-08-20T18:43:35;24.40;89.50
15099;DHT22;33900;53.640;9.942;2023-08-20T18:46:01;24.30;89.60
15099;DHT22;33900;53.640;9.942;2023-08-20T18:48:29;24.30;89.70
15099;DHT22;33900;53.640;9.942;2023-08-20T18:50:55;24.30;89.80
15099;DHT22;33900;53.640;9.942;2023-08-20T18:53:22;24.20;89.80
15099;DHT22;33900;53.640;9.942;2023-08-20T18:55:49;24.20;89.80
15099;DHT22;33900;53.640;9.942;2023-08-20T18:58:14;24.20;90.00
15099;DHT22;33900;53.640;9.942;2023-08-20T19:00:40;24.10;89.90
15099;DHT22;33900;53.640;9.942;2023-08-20T19:03:06;24.10;90.00
15099;DHT22;33900;53.640;9.942;2023-08-20T19:05:32;24.00;90.00
15099;DHT22;33900;53.640;9.942;2023-08-20T19:07:58;24.00;90.00
15099;DHT22;33900;53.640;9.942;2023-08-20T19:10:23;23.90;90.00
15099;DHT22;33900;53.640;9.942;2023-08-20T19:12:49;23.90;90.00
15099;DHT22;33900;53.640;9.942;2023-08-20T19:15:14;23.80;90.00
15099;DHT22;33900;53.640;9.942;2023-08-20T19:17:40;23.80;90.00
15099;DHT22;33900;53.640;9.942;2023-08-20T19:20:06;23.70;90.00
15099;DHT22;33900;53.640;9.942;2023-08-20T19:22:35;23.70;90.00
15099;DHT22;33900;53.640;9.942;2023-08-20T19:25:01;23.70;90.10
15099;DHT22;33900;53.640;9.942;2023-08-20T19:27:26;23.60;90.10
15099;DHT22;33900;53.640;9.942;2023-08-20T19:29:52;23.60;90.10
15099;DHT22;33900;53.640;9.942;2023-08-20T19:32:18;23.50;90.20
15099;DHT22;33900;53.640;9.942;2023-08-20T19:34:44;23.50;90.20
15099;DHT22;33900;53.640;9.942;2023-08-20T19:37:09;23.50;90.20
15099;DHT22;33900;53.640;9.942;2023-08-20T19:39:36;23.40;90.20
15099;DHT22;33900;53.640;9.942;2023-08-20T19:42:03;23.40;90.30
15099;DHT22;33900;53.640;9.942;2023-08-20T19:44:28;23.40;90.30
15099;DHT22;33900;53.640;9.942;2023-08-20T19:46:54;23.40;90.40
15099;DHT22;33900;53.640;9.942;2023-08-20T19:49:20;23.20;90.40
15099;DHT22;33900;53.640;9.942;2023-08-20T19:51:46;23.30;90.40
15099;DHT22;33900;53.640;9.942;2023-08-20T19:54:11;23.20;90.40
15099;DHT22;33900;53.640;9.942;2023-08-20T19:56:37;23.20;90.50
15099;DHT22;33900;53.640;9.942;2023-08-20T19:59:03;23.20;90.50
15099;DHT22;33900;53.640;9.942;2023-08-20T20:01:28;23.10;90.50
15099;DHT22;33900;53.640;9.942;2023-08-20T20:03:54;23.10;90.50
15099;DHT22;33900;53.640;9.942;2023-08-20T20:06:20;23.10;90.60
15099;DHT22;33900;53.640;9.942;2023-08-20T20:08:45;23.00;90.60
15099;DHT22;33900;53.640;9.942;2023-08-20T20:11:11;23.00;90.60
15099;DHT22;33900;53.640;9.942;2023-08-20T20:13:37;23.00;90.60
15099;DHT22;33900;53.640;9.942;2023-08-20T20:16:02;22.90;90.70
15099;DHT22;33900;53.640;9.942;2023-08-20T20:18:29;22.90;90.70
15099;DHT22;33900;53.640;9.942;2023-08-20T20:20:55;22.90;90.70
15099;DHT22;33900;53.640;9.942;2023-08-20T20:23:20;22.90;90.80
15099;DHT22;33900;53.640;9.942;2023-08-20T20:25:46;22.80;90.80
15099;DHT22;33900;53.640;9.942;2023-08-20T20:28:12;22.80;90.90
15099;DHT22;33900;53.640;9.942;2023-08-20T20:30:39;22.70;90.80
15099;DHT22;33900;53.640;9.942;2023-08-20T20:33:04;22.70;90.90
15099;DHT22;33900;53.640;9.942;2023-08-20T20:35:30;22.70;91.00
15099;DHT22;33900;53.640;9.942;2023-08-20T20:37:56;22.70;91.00
15099;DHT22;33900;53.640;9.942;2023-08-20T20:40:22;22.70;91.00
15099;DHT22;33900;53.640;9.942;2023-08-20T20:42:47;22.60;91.00
15099;DHT22;33900;53.640;9.942;2023-08-20T20:45:13;22.60;91.10
15099;DHT22;33900;53.640;9.942;2023-08-20T20:47:39;22.60;91.10
15099;DHT22;33900;53.640;9.942;2023-08-20T20:50:05;22.60;91.10
15099;DHT22;33900;53.640;9.942;2023-08-20T20:52:31;22.60;91.10
15099;DHT22;33900;53.640;9.942;2023-08-20T20:54:57;22.50;91.20
15099;DHT22;33900;53.640;9.942;2023-08-20T20:57:23;22.50;91.20
15099;DHT22;33900;53.640;9.942;2023-08-20T20:59:48;22.50;91.30
15099;DHT22;33900;53.640;9.942;2023-08-20T21:02:14;22.50;91.30
15099;DHT22;33900;53.640;9.942;2023-08-20T21:04:40;22.50;91.30
15099;DHT22;33900;53.640;9.942;2023-08-20T21:07:05;22.40;91.30
15099;DHT22;33900;53.640;9.942;2023-08-20T21:09:31;22.40;91.30
15099;DHT22;33900;53.640;9.942;2023-08-20T21:11:56;22.40;91.40
15099;DHT22;33900;53.640;9.942;2023-08-20T21:14:22;22.40;91.40
15099;DHT22;33900;53.640;9.942;2023-08-20T21:16:48;22.30;91.40
15099;DHT22;33900;53.640;9.942;2023-08-20T21:19:13;22.30;91.50
15099;DHT22;33900;53.640;9.942;2023-08-20T21:21:39;22.30;91.50
15099;DHT22;33900;53.640;9.942;2023-08-20T21:26:57;22.20;91.50
15099;DHT22;33900;53.640;9.942;2023-08-20T21:29:22;22.20;91.60
15099;DHT22;33900;53.640;9.942;2023-08-20T21:31:48;22.20;91.60
15099;DHT22;33900;53.640;9.942;2023-08-20T21:34:13;22.20;91.60
15099;DHT22;33900;53.640;9.942;2023-08-20T21:36:39;22.10;91.60
15099;DHT22;33900;53.640;9.942;2023-08-20T21:39:04;22.10;91.70
15099;DHT22;33900;53.640;9.942;2023-08-20T21:41:30;22.10;91.70
15099;DHT22;33900;53.640;9.942;2023-08-20T21:43:55;22.00;91.70
15099;DHT22;33900;53.640;9.942;2023-08-20T21:46:21;22.00;91.70
15099;DHT22;33900;53.640;9.942;2023-08-20T21:48:47;22.00;91.70
15099;DHT22;33900;53.640;9.942;2023-08-20T21:51:13;22.00;91.80
15099;DHT22;33900;53.640;9.942;2023-08-20T21:53:38;21.90;91.80
15099;DHT22;33900;53.640;9.942;2023-08-20T21:56:04;21.90;91.80
15099;DHT22;33900;53.640;9.942;2023-08-20T21:58:30;21.80;91.90
15099;DHT22;33900;53.640;9.942;2023-08-20T22:00:55;21.90;91.90
15099;DHT22;33900;53.640;9.942;2023-08-20T22:03:21;21.80;91.90
15099;DHT22;33900;53.640;9.942;2023-08-20T22:05:46;21.80;92.00
15099;DHT22;33900;53.640;9.942;2023-08-20T22:08:12;21.80;92.00
15099;DHT22;33900;53.640;9.942;2023-08-20T22:10:41;21.70;92.00
15099;DHT22;33900;53.640;9.942;2023-08-20T22:13:07;21.70;92.00
15099;DHT22;33900;53.640;9.942;2023-08-20T22:15:33;21.70;92.10
15099;DHT22;33900;53.640;9.942;2023-08-20T22:17:59;21.70;92.10
15099;DHT22;33900;53.640;9.942;2023-08-20T22:20:27;21.70;92.10
15099;DHT22;33900;53.640;9.942;2023-08-20T22:22:52;21.70;92.20
15099;DHT22;33900;53.640;9.942;2023-08-20T22:25:18;21.60;92.20
15099;DHT22;33900;53.640;9.942;2023-08-20T22:27:44;21.60;92.20
15099;DHT22;33900;53.640;9.942;2023-08-20T22:30:10;21.60;92.20
15099;DHT22;33900;53.640;9.942;2023-08-20T22:32:35;21.60;92.20
15099;DHT22;33900;53.640;9.942;2023-08-20T22:35:01;21.60;92.30
15099;DHT22;33900;53.640;9.942;2023-08-20T22:37:27;21.50;92.30
15099;DHT22;33900;53.640;9.942;2023-08-20T22:39:52;21.50;92.30
15099;DHT22;33900;53.640;9.942;2023-08-20T22:42:18;21.50;92.30
15099;DHT22;33900;53.640;9.942;2023-08-20T22:44:44;21.50;92.40
15099;DHT22;33900;53.640;9.942;2023-08-20T22:47:10;21.40;92.40
15099;DHT22;33900;53.640;9.942;2023-08-20T22:49:35;21.40;92.40
15099;DHT22;33900;53.640;9.942;2023-08-20T22:52:01;21.40;92.40
15099;DHT22;33900;53.640;9.942;2023-08-20T22:54:27;21.40;92.50
15099;DHT22;33900;53.640;9.942;2023-08-20T22:56:55;21.40;92.50
15099;DHT22;33900;53.640;9.942;2023-08-20T22:59:20;21.40;92.50
15099;DHT22;33900;53.640;9.942;2023-08-20T23:01:46;21.30;92.50
15099;DHT22;33900;53.640;9.942;2023-08-20T23:04:18;21.30;92.60
15099;DHT22;33900;53.640;9.942;2023-08-20T23:06:43;21.30;92.60
15099;DHT22;33900;53.640;9.942;2023-08-20T23:09:11;21.30;92.60
15099;DHT22;33900;53.640;9.942;2023-08-20T23:11:37;21.30;92.70
15099;DHT22;33900;53.640;9.942;2023-08-20T23:14:02;21.20;92.60
15099;DHT22;33900;53.640;9.942;2023-08-20T23:16:28;21.20;92.60
15099;DHT22;33900;53.640;9.942;2023-08-20T23:18:53;21.20;92.70
15099;DHT22;33900;53.640;9.942;2023-08-20T23:21:19;21.20;92.70
15099;DHT22;33900;53.640;9.942;2023-08-20T23:23:47;21.20;92.70
15099;DHT22;33900;53.640;9.942;2023-08-20T23:26:12;21.10;92.70
15099;DHT22;33900;53.640;9.942;2023-08-20T23:28:38;21.10;92.70
15099;DHT22;33900;53.640;9.942;2023-08-20T23:31:04;21.10;92.80
15099;DHT22;33900;53.640;9.942;2023-08-20T23:33:30;21.00;92.80
15099;DHT22;33900;53.640;9.942;2023-08-20T23:35:55;21.00;92.80
15099;DHT22;33900;53.640;9.942;2023-08-20T23:38:21;21.00;92.80
15099;DHT22;33900;53.640;9.942;2023-08-20T23:40:46;21.00;92.80
15099;DHT22;33900;53.640;9.942;2023-08-20T23:43:12;21.00;92.90
15099;DHT22;33900;53.640;9.942;2023-08-20T23:45:38;21.00;92.90
15099;DHT22;33900;53.640;9.942;2023-08-20T23:48:03;20.90;92.80
15099;DHT22;33900;53.640;9.942;2023-08-20T23:50:29;20.90;92.90
15099;DHT22;33900;53.640;9.942;2023-08-20T23:52:54;20.90;92.90
15099;DHT22;33900;53.640;9.942;2023-08-20T23:55:20;20.90;92.90
15099;DHT22;33900;53.640;9.942;2023-08-20T23:57:46;20.90;93.00
